createdAt,value
2022-08-21T00:03:06.071Z,5.13
2022-08-21T00:08:02.384Z,6.93
2022-08-21T00:12:58.895Z,5.80
2022-08-21T00:17:55.807Z,5.65
2022-08-21T00:22:52.511Z,6.38
2022-08-21T00:27:49.074Z,7.18
2022-08-21T00:32:45.378Z,7.07
2022-08-21T00:37:42.055Z,6.72
2022-08-21T00:42:38.351Z,7.35
2022-08-21T00:47:34.690Z,6.47
2022-08-21T00:52:32.994Z,8.27
2022-08-21T00:57:34.691Z,7.35
2022-08-21T01:02:30.992Z,7.60
2022-08-21T01:07:27.819Z,6.68
2022-08-21T01:12:24.311Z,5.63
2022-08-21T01:17:21.411Z,6.55
2022-08-21T01:22:17.759Z,5.88
2022-08-21T01:27:14.040Z,5.68
2022-08-21T01:32:11.965Z,4.68
2022-08-21T01:37:08.608Z,5.00
2022-08-21T01:42:05.540Z,5.10
2022-08-21T01:47:02.705Z,4.38
2022-08-21T01:51:59.103Z,5.28
2022-08-21T01:56:55.835Z,4.35
2022-08-21T02:01:54.896Z,3.92
2022-08-21T02:06:51.372Z,4.75
2022-08-21T02:11:47.642Z,3.67
2022-08-21T02:16:45.277Z,4.80
2022-08-21T02:21:42.097Z,4.30
2022-08-21T02:26:38.503Z,4.35
2022-08-21T02:31:34.862Z,4.53
2022-08-21T02:36:31.539Z,4.18
2022-08-21T02:41:27.832Z,5.25
2022-08-21T02:46:24.544Z,4.28
2022-08-21T02:51:21.106Z,5.32
2022-08-21T02:56:18.747Z,4.50
2022-08-21T03:01:15.289Z,4.80
2022-08-21T03:06:12.938Z,4.60
2022-08-21T03:11:10.267Z,4.43
2022-08-21T03:16:10.105Z,4.40
2022-08-21T03:21:07.259Z,4.20
2022-08-21T03:26:03.771Z,4.18
2022-08-21T03:31:00.023Z,4.25
2022-08-21T03:36:01.497Z,3.85
2022-08-21T03:40:58.121Z,3.95
2022-08-21T03:45:54.415Z,3.28
2022-08-21T03:50:52.908Z,4.00
2022-08-21T03:55:50.194Z,3.90
2022-08-21T04:00:47.655Z,3.83
2022-08-21T04:05:46.107Z,4.03
2022-08-21T04:10:44.151Z,3.30
2022-08-21T04:15:41.670Z,3.85
2022-08-21T04:20:38.502Z,3.60
2022-08-21T04:25:34.818Z,3.55
2022-08-21T04:30:31.118Z,4.30
2022-08-21T04:35:28.758Z,3.33
2022-08-21T04:40:26.595Z,3.50
2022-08-21T04:45:23.021Z,3.15
2022-08-21T04:50:19.479Z,3.80
2022-08-21T04:55:17.263Z,3.63
2022-08-21T05:00:14.611Z,4.13
2022-08-21T05:05:11.270Z,3.90
2022-08-21T05:10:09.254Z,3.28
2022-08-21T05:15:05.661Z,3.28
2022-08-21T05:20:02.695Z,2.75
2022-08-21T05:24:59.264Z,2.90
2022-08-21T05:29:55.485Z,2.63
2022-08-21T05:34:52.369Z,3.75
2022-08-21T05:40:21.753Z,3.15
2022-08-21T05:45:05.152Z,3.17
2022-08-21T05:50:01.535Z,2.70
2022-08-21T05:54:57.822Z,3.08
2022-08-21T05:59:54.128Z,2.67
2022-08-21T06:04:50.901Z,4.38
2022-08-21T06:09:47.131Z,2.58
2022-08-21T06:14:43.495Z,3.00
2022-08-21T06:19:39.882Z,2.78
2022-08-21T06:24:36.981Z,2.72
2022-08-21T06:29:44.220Z,3.60
2022-08-21T06:34:41.787Z,3.60
2022-08-21T06:39:40.947Z,3.90
2022-08-21T06:44:41.019Z,3.28
2022-08-21T06:49:38.366Z,3.20
2022-08-21T06:54:34.767Z,3.88
2022-08-21T06:59:31.182Z,3.53
2022-08-21T07:04:27.739Z,3.70
2022-08-21T07:09:24.980Z,3.67
2022-08-21T07:14:21.458Z,3.72
2022-08-21T07:19:18.270Z,4.32
2022-08-21T07:24:14.643Z,4.45
2022-08-21T07:29:10.924Z,4.63
2022-08-21T07:34:07.189Z,4.82
2022-08-21T07:39:03.578Z,4.40
2022-08-21T07:44:00.540Z,4.55
2022-08-21T07:48:56.838Z,4.60
2022-08-21T07:53:54.290Z,4.82
2022-08-21T07:58:50.729Z,4.70
2022-08-21T08:03:47.355Z,5.13
2022-08-21T08:08:43.861Z,5.22
2022-08-21T08:13:44.644Z,5.40
2022-08-21T08:18:43.248Z,5.55
2022-08-21T08:23:39.818Z,5.50
2022-08-21T08:28:36.124Z,5.30
2022-08-21T08:33:32.491Z,5.45
2022-08-21T08:38:28.779Z,5.43
2022-08-21T08:43:25.786Z,5.78
2022-08-21T08:48:40.411Z,5.97
2022-08-21T08:53:56.990Z,6.20
2022-08-21T08:58:54.152Z,6.53
2022-08-21T09:03:52.750Z,6.28
2022-08-21T09:08:55.372Z,6.50
2022-08-21T09:14:10.003Z,6.35
2022-08-21T09:19:15.450Z,6.82
2022-08-21T09:24:22.935Z,6.57
2022-08-21T09:29:21.612Z,6.25
2022-08-21T09:34:25.346Z,6.43
2022-08-21T09:39:24.610Z,6.28
2022-08-21T09:44:26.032Z,6.95
2022-08-21T09:49:29.872Z,6.10
2022-08-21T09:54:29.797Z,7.18
2022-08-21T09:59:36.543Z,7.45
2022-08-21T10:04:34.882Z,7.47
2022-08-21T10:09:31.347Z,7.63
2022-08-21T10:14:27.631Z,8.15
2022-08-21T10:19:29.927Z,7.07
2022-08-21T10:24:31.808Z,6.70
2022-08-21T10:29:43.141Z,8.60
2022-08-21T10:34:58.091Z,6.03
2022-08-21T10:39:57.348Z,6.13
2022-08-21T10:44:59.884Z,5.75
2022-08-21T10:50:03.862Z,6.10
2022-08-21T10:55:09.483Z,5.97
2022-08-21T11:00:11.303Z,6.15
2022-08-21T11:05:20.079Z,5.93
2022-08-21T11:10:16.303Z,6.53
2022-08-21T11:15:29.207Z,5.78
2022-08-21T11:20:31.511Z,6.28
2022-08-21T11:30:28.240Z,5.95
2022-08-21T11:35:32.038Z,5.65
2022-08-21T11:40:43.314Z,5.60
2022-08-21T11:45:42.405Z,5.33
2022-08-21T11:50:39.716Z,6.20
2022-08-21T11:55:39.907Z,5.88
2022-08-21T12:00:56.466Z,5.35
2022-08-21T12:05:55.058Z,6.05
2022-08-21T12:11:01.636Z,6.50
2022-08-21T12:16:07.714Z,5.13
2022-08-21T12:21:22.912Z,5.95
2022-08-21T12:26:24.919Z,4.93
2022-08-21T12:31:22.798Z,5.57
2022-08-21T12:36:22.282Z,5.57
2022-08-21T12:41:25.378Z,5.05
2022-08-21T12:46:22.971Z,5.03
2022-08-21T12:51:33.909Z,5.10
2022-08-21T12:56:34.820Z,5.03
2022-08-21T13:01:39.351Z,5.30
2022-08-21T13:06:45.610Z,5.40
2022-08-21T13:11:43.256Z,4.90
2022-08-21T13:16:40.191Z,5.30
2022-08-21T13:21:41.179Z,5.28
2022-08-21T13:26:37.443Z,5.07
2022-08-21T13:31:34.359Z,4.97
2022-08-21T13:36:32.898Z,4.90
2022-08-21T13:41:31.701Z,4.78
2022-08-21T13:46:30.139Z,4.50
2022-08-21T13:51:26.691Z,4.80
2022-08-21T13:56:26.468Z,5.07
2022-08-21T14:01:24.728Z,5.00
2022-08-21T14:06:25.438Z,4.72
2022-08-21T14:11:22.414Z,5.10
2022-08-21T14:16:21.660Z,4.80
2022-08-21T14:21:31.978Z,5.80
2022-08-21T14:26:28.325Z,4.53
2022-08-21T14:31:30.342Z,4.95
2022-08-21T14:36:27.773Z,5.03
2022-08-21T14:41:27.027Z,5.70
2022-08-21T14:46:26.045Z,5.68
2022-08-21T14:51:22.390Z,4.97
2022-08-21T14:56:18.996Z,4.22
2022-08-21T15:01:16.580Z,4.57
2022-08-21T15:06:13.185Z,4.45
2022-08-21T15:11:15.431Z,4.65
2022-08-21T15:16:15.132Z,4.43
2022-08-21T15:21:11.423Z,4.00
2022-08-21T15:26:07.694Z,4.82
2022-08-21T15:31:03.935Z,4.78
2022-08-21T15:36:00.283Z,4.47
2022-08-21T15:40:56.630Z,4.70
2022-08-21T15:45:53.291Z,4.70
2022-08-21T15:50:49.700Z,4.32
2022-08-21T15:55:46.184Z,4.47
2022-08-21T16:00:45.014Z,4.82
2022-08-21T16:05:41.376Z,4.90
2022-08-21T16:10:38.541Z,4.75
2022-08-21T16:15:34.939Z,5.13
2022-08-21T16:20:31.314Z,4.70
2022-08-21T16:25:27.735Z,5.00
2022-08-21T16:30:24.464Z,4.85
2022-08-21T16:35:21.434Z,5.03
2022-08-21T16:40:18.080Z,4.85
2022-08-21T16:45:16.146Z,5.10
2022-08-21T16:50:16.886Z,4.65
2022-08-21T16:55:13.220Z,5.00
2022-08-21T17:00:12.838Z,5.38
2022-08-21T17:05:14.195Z,4.40
2022-08-21T17:15:27.311Z,5.03
2022-08-21T17:20:24.439Z,5.90
2022-08-21T17:25:20.856Z,4.82
2022-08-21T17:30:17.612Z,4.50
2022-08-21T17:35:14.305Z,6.07
2022-08-21T17:40:13.053Z,4.75
2022-08-21T17:45:11.284Z,5.25
2022-08-21T17:50:08.544Z,5.57
2022-08-21T17:55:05.207Z,5.07
2022-08-21T18:00:02.834Z,4.72
2022-08-21T18:04:59.246Z,4.93
2022-08-21T18:09:55.537Z,5.90
2022-08-21T18:14:53.222Z,5.15
2022-08-21T18:19:50.176Z,6.00
2022-08-21T18:24:46.514Z,5.57
2022-08-21T18:29:46.560Z,5.18
2022-08-21T18:34:45.161Z,4.70
2022-08-21T18:39:41.577Z,5.10
2022-08-21T18:44:39.157Z,4.88
2022-08-21T18:49:35.552Z,5.78
2022-08-21T18:54:32.339Z,5.72
2022-08-21T18:59:29.236Z,5.07
2022-08-21T19:04:43.693Z,4.53
2022-08-21T19:09:42.253Z,4.82
2022-08-21T19:14:38.573Z,5.25
2022-08-21T19:19:36.221Z,4.50
2022-08-21T19:24:36.218Z,5.20
2022-08-21T19:29:35.095Z,5.70
2022-08-21T19:34:31.794Z,4.70
2022-08-21T19:39:28.214Z,4.78
2022-08-21T19:44:26.649Z,5.70
2022-08-21T19:49:25.626Z,5.13
2022-08-21T19:54:26.690Z,5.10
2022-08-21T19:59:24.895Z,4.60
2022-08-21T20:04:22.216Z,5.40
2022-08-21T20:09:18.615Z,5.40
2022-08-21T20:14:18.778Z,5.68
2022-08-21T20:19:15.146Z,4.43
2022-08-21T20:24:14.626Z,5.28
2022-08-21T20:29:11.631Z,4.47
2022-08-21T20:34:07.944Z,5.57
2022-08-21T20:39:08.004Z,4.82
2022-08-21T20:44:08.135Z,4.65
2022-08-21T20:49:10.854Z,4.00
2022-08-21T20:54:14.506Z,4.13
2022-08-21T20:59:43.918Z,5.05
2022-08-21T21:04:44.639Z,4.20
2022-08-21T21:09:45.827Z,4.00
2022-08-21T21:20:19.227Z,3.90
2022-08-21T21:25:40.636Z,3.90
2022-08-21T21:30:39.969Z,4.20
2022-08-21T21:35:49.155Z,3.75
2022-08-21T21:40:48.615Z,3.70
2022-08-21T21:46:03.916Z,3.72
2022-08-21T21:51:16.277Z,4.18
2022-08-21T21:56:27.453Z,4.15
2022-08-21T22:01:23.974Z,4.40
2022-08-21T22:06:43.387Z,4.43
2022-08-21T22:11:40.696Z,4.20
2022-08-21T22:16:37.507Z,4.05
2022-08-21T22:21:36.528Z,4.20
2022-08-21T22:26:38.141Z,3.60
2022-08-21T22:31:34.780Z,4.07
2022-08-21T22:36:33.014Z,3.92
2022-08-21T22:41:31.008Z,3.97
2022-08-21T22:46:30.287Z,4.05
2022-08-21T22:51:32.340Z,4.03
2022-08-21T23:01:24.991Z,3.63
2022-08-21T23:06:32.014Z,4.38
2022-08-21T23:11:36.621Z,3.58
2022-08-21T23:16:32.978Z,3.90
2022-08-21T23:21:32.347Z,4.28
2022-08-21T23:26:34.055Z,3.90
2022-08-21T23:31:43.371Z,3.33
2022-08-21T23:37:08.544Z,3.75
2022-08-21T23:42:22.525Z,3.00
2022-08-21T23:47:37.560Z,3.33
2022-08-21T23:52:42.889Z,3.67
2022-08-21T23:57:50.816Z,3.33
